Time;durP1;ratioP1;P1;durP2;ratioP2;P2;SDS_P1;SDS_P2;PMS_P1;PMS_P2;Temp;Humidity;BMP_temperature;BMP_pressure;BME280_temperature;BME280_humidity;BME280_pressure;Samples;Min_cycle;Max_cycle;Signal;HPM_P1;HPM_P2
2022/08/24 00:00:23;;;;;;;40.53;36.13;;;19.70;99.90;;;;;;6274368;22;20046;-91
2022/08/24 00:02:49;;;;;;;41.05;36.60;;;19.70;99.90;;;;;;6274292;22;20015;-90
2022/08/24 00:05:15;;;;;;;37.50;33.55;;;19.60;99.90;;;;;;6275599;22;20389;-92
2022/08/24 00:07:41;;;;;;;44.33;36.15;;;19.60;99.90;;;;;;6275148;22;20521;-91
2022/08/24 00:10:09;;;;;;;44.75;38.42;;;19.60;99.90;;;;;;6303668;22;20015;-92
2022/08/24 00:12:34;;;;;;;49.65;39.63;;;19.60;99.90;;;;;;6276117;22;20051;-92
2022/08/24 00:15:05;;;;;;;42.15;37.22;;;19.60;99.90;;;;;;6276254;22;20019;-92
2022/08/24 00:17:32;;;;;;;47.42;41.17;;;19.60;99.90;;;;;;6275838;22;20016;-92
2022/08/24 00:19:59;;;;;;;47.83;40.15;;;19.60;99.90;;;;;;6303982;22;20082;-91
2022/08/24 00:22:24;;;;;;;48.13;40.20;;;19.50;99.90;;;;;;6275111;22;20034;-91
2022/08/24 00:24:50;;;;;;;44.42;39.55;;;19.50;99.90;;;;;;6275414;22;20382;-92
2022/08/24 00:27:16;;;;;;;43.95;37.88;;;19.50;99.90;;;;;;6303471;22;20118;-92
2022/08/24 00:29:41;;;;;;;49.33;41.30;;;19.50;99.90;;;;;;6233507;22;20410;-92
2022/08/24 00:32:07;;;;;;;42.22;37.70;;;19.50;99.90;;;;;;6176897;23;20017;-92
2022/08/24 00:34:33;;;;;;;39.20;34.95;;;19.30;99.90;;;;;;6176485;23;20016;-92
2022/08/24 00:36:58;;;;;;;45.58;38.97;;;19.40;99.90;;;;;;6149849;23;20338;-92
2022/08/24 00:39:24;;;;;;;49.20;41.42;;;19.30;99.90;;;;;;6176765;23;20017;-92
2022/08/24 00:41:50;;;;;;;45.80;40.85;;;19.30;99.90;;;;;;6176189;23;20024;-91
2022/08/24 00:44:18;;;;;;;48.67;42.25;;;19.30;99.90;;;;;;6177158;23;20437;-91
2022/08/24 00:47:11;;;;;;;43.42;37.38;;;19.30;99.90;;;;;;6174680;23;20464;-91
2022/08/24 00:49:47;;;;;;;44.22;38.08;;;19.30;99.90;;;;;;6149737;23;20103;-92
2022/08/24 00:52:26;;;;;;;44.92;38.17;;;19.30;99.90;;;;;;6176388;23;20015;-91
2022/08/24 00:54:59;;;;;;;43.58;37.17;;;19.40;99.90;;;;;;6149898;23;20247;-92
2022/08/24 00:57:30;;;;;;;43.92;37.45;;;19.20;99.90;;;;;;6176923;23;20028;-91
2022/08/24 01:00:00;;;;;;;40.70;36.28;;;19.10;99.90;;;;;;6176453;23;20017;-92
2022/08/24 01:02:33;;;;;;;42.65;36.17;;;19.20;99.90;;;;;;6176564;23;20534;-91
2022/08/24 01:05:03;;;;;;;40.55;34.80;;;19.10;99.90;;;;;;6149366;23;20017;-92
2022/08/24 01:07:31;;;;;;;40.00;35.70;;;19.10;99.90;;;;;;6177017;23;20082;-92
2022/08/24 01:10:00;;;;;;;40.35;34.42;;;19.10;99.90;;;;;;6176212;23;20124;-92
2022/08/24 01:12:28;;;;;;;42.13;35.70;;;19.10;99.90;;;;;;6176921;23;20017;-92
2022/08/24 01:14:56;;;;;;;43.63;38.65;;;19.00;99.90;;;;;;6175751;23;20345;-92
2022/08/24 01:20:09;;;;;;;40.67;36.22;;;18.90;99.90;;;;;;6176212;23;20382;-91
2022/08/24 01:22:55;;;;;;;44.20;36.90;;;18.90;99.90;;;;;;6175895;23;20096;-92
2022/08/24 01:25:24;;;;;;;46.47;38.05;;;18.80;99.90;;;;;;6174247;23;20112;-92
2022/08/24 01:27:52;;;;;;;43.88;37.85;;;18.80;99.90;;;;;;6176422;23;20017;-92
2022/08/24 01:30:18;;;;;;;43.17;38.47;;;18.70;99.90;;;;;;6256227;22;20021;-91
2022/08/24 01:32:58;;;;;;;43.95;37.78;;;19.20;99.90;;;;;;6302442;22;20042;-92
2022/08/24 01:35:24;;;;;;;43.15;37.17;;;18.80;99.90;;;;;;6274261;22;20019;-93
2022/08/24 01:37:50;;;;;;;41.40;35.70;;;18.70;99.90;;;;;;6249366;22;20015;-92
2022/08/24 01:40:18;;;;;;;44.45;36.90;;;18.70;99.90;;;;;;6275030;22;20075;-92
2022/08/24 01:42:49;;;;;;;40.90;35.20;;;18.70;99.90;;;;;;6302471;22;20343;-92
2022/08/24 01:45:15;;;;;;;41.22;35.60;;;18.70;99.90;;;;;;6275886;22;20019;-92
2022/08/24 01:47:40;;;;;;;35.45;31.25;;;18.60;99.90;;;;;;6302253;22;20358;-92
2022/08/24 01:50:07;;;;;;;44.45;34.72;;;18.60;99.90;;;;;;6301617;22;20031;-90
2022/08/24 01:52:32;;;;;;;41.47;35.65;;;18.60;99.90;;;;;;6275120;22;20014;-91
2022/08/24 01:54:59;;;;;;;41.42;36.83;;;18.70;99.90;;;;;;6274685;22;20105;-91
2022/08/24 01:57:26;;;;;;;42.67;36.20;;;18.60;99.90;;;;;;6275116;22;20018;-92
2022/08/24 01:59:52;;;;;;;38.92;34.50;;;18.50;99.90;;;;;;6274857;22;20034;-91
2022/08/24 02:02:25;;;;;;;37.55;33.38;;;18.60;99.90;;;;;;6302821;22;20420;-92
2022/08/24 02:04:51;;;;;;;40.03;34.65;;;18.60;99.90;;;;;;6274588;22;20019;-92
2022/08/24 02:07:18;;;;;;;43.35;35.65;;;19.30;99.90;;;;;;6249240;22;20012;-92
2022/08/24 02:09:44;;;;;;;42.38;35.45;;;18.50;99.90;;;;;;6302378;22;20106;-91
2022/08/24 02:12:10;;;;;;;42.38;33.85;;;18.60;99.90;;;;;;6302830;22;20459;-91
2022/08/24 02:14:36;;;;;;;39.78;33.92;;;18.50;99.90;;;;;;6301517;22;20030;-92
2022/08/24 02:17:04;;;;;;;39.08;32.95;;;18.50;99.90;;;;;;6302839;22;20019;-91
2022/08/24 02:19:30;;;;;;;43.75;36.33;;;18.40;99.90;;;;;;6274928;22;20051;-91
2022/08/24 02:21:56;;;;;;;37.00;32.80;;;18.40;99.90;;;;;;6248902;22;20019;-92
2022/08/24 02:24:22;;;;;;;41.00;35.10;;;18.30;99.90;;;;;;6274877;22;20149;-92
2022/08/24 02:26:48;;;;;;;44.90;35.08;;;18.30;99.90;;;;;;6273772;22;20348;-91
2022/08/24 02:29:14;;;;;;;41.17;36.65;;;18.30;99.90;;;;;;6302138;22;20015;-91
2022/08/24 02:31:39;;;;;;;42.58;36.28;;;18.30;99.90;;;;;;6273600;22;20017;-91
2022/08/24 02:34:05;;;;;;;40.50;34.17;;;18.50;99.90;;;;;;6274899;22;20317;-91
2022/08/24 02:36:31;;;;;;;38.65;33.67;;;18.20;99.90;;;;;;6274793;22;20019;-92
2022/08/24 02:38:58;;;;;;;32.10;28.60;;;18.20;99.90;;;;;;6274472;22;20015;-92
2022/08/24 02:41:24;;;;;;;38.58;33.28;;;18.20;99.90;;;;;;6302278;22;20120;-91
2022/08/24 02:43:51;;;;;;;41.42;33.50;;;18.20;99.90;;;;;;6274479;22;20019;-91
2022/08/24 02:46:19;;;;;;;38.97;34.20;;;18.20;99.90;;;;;;6301758;22;20049;-92
2022/08/24 02:48:45;;;;;;;39.40;33.47;;;18.20;99.90;;;;;;6302098;22;20317;-91
2022/08/24 02:51:19;;;;;;;41.72;35.03;;;18.20;99.90;;;;;;6301673;22;20022;-92
2022/08/24 02:53:44;;;;;;;39.27;32.33;;;18.20;99.90;;;;;;6301885;22;20007;-91
2022/08/24 02:56:10;;;;;;;39.05;33.03;;;18.10;99.90;;;;;;6301922;22;20302;-92
2022/08/24 02:58:37;;;;;;;39.13;33.47;;;18.10;99.90;;;;;;6301655;22;20026;-91
2022/08/24 03:01:03;;;;;;;39.20;33.42;;;18.10;99.90;;;;;;6301729;22;20050;-91
2022/08/24 03:03:28;;;;;;;38.25;32.97;;;18.10;99.90;;;;;;6274818;22;20482;-91
2022/08/24 03:05:54;;;;;;;37.42;32.40;;;18.10;99.90;;;;;;6301919;22;20051;-91
2022/08/24 03:08:19;;;;;;;40.75;33.00;;;18.00;99.90;;;;;;6249186;22;20498;-91
2022/08/24 03:10:46;;;;;;;39.22;33.55;;;18.00;99.90;;;;;;6274721;22;20026;-91
2022/08/24 03:13:12;;;;;;;38.05;32.40;;;18.00;99.90;;;;;;6248844;22;20051;-91
2022/08/24 03:15:38;;;;;;;39.50;33.38;;;17.90;99.90;;;;;;6300881;22;20026;-92
2022/08/24 03:18:04;;;;;;;37.67;33.58;;;17.90;99.90;;;;;;6274587;22;20015;-91
2022/08/24 03:20:29;;;;;;;40.33;33.40;;;17.90;99.90;;;;;;6248960;22;20137;-92
2022/08/24 03:22:55;;;;;;;38.33;32.78;;;18.00;99.90;;;;;;6301697;22;20171;-92
2022/08/24 03:25:23;;;;;;;37.42;31.73;;;17.90;99.90;;;;;;6302259;22;20016;-93
2022/08/24 03:27:50;;;;;;;38.78;33.53;;;17.90;99.90;;;;;;6301766;22;20015;-91
2022/08/24 03:30:17;;;;;;;38.95;33.67;;;17.80;99.90;;;;;;6301304;22;20351;-91
2022/08/24 03:32:42;;;;;;;38.80;32.28;;;17.90;99.90;;;;;;6248764;22;20451;-91
2022/08/24 03:35:11;;;;;;;36.03;31.08;;;17.80;99.90;;;;;;6301972;22;20050;-91
2022/08/24 03:37:37;;;;;;;36.15;29.48;;;17.80;99.90;;;;;;6248470;22;20011;-91
2022/08/24 03:40:04;;;;;;;38.00;32.25;;;17.70;99.90;;;;;;6276310;22;20084;-92
2022/08/24 03:42:30;;;;;;;36.85;30.73;;;17.80;99.90;;;;;;6276133;22;20471;-92
2022/08/24 03:44:55;;;;;;;35.70;31.83;;;17.80;99.90;;;;;;6303540;22;20091;-91
2022/08/24 03:47:21;;;;;;;37.00;31.85;;;17.70;99.90;;;;;;6276289;22;20471;-91
2022/08/24 03:49:47;;;;;;;38.20;31.90;;;17.70;99.90;;;;;;6303072;22;20023;-91
2022/08/24 03:52:13;;;;;;;39.63;32.38;;;17.90;99.90;;;;;;6276477;22;20085;-92
2022/08/24 03:54:39;;;;;;;37.72;32.83;;;17.70;99.90;;;;;;6250305;22;20580;-91
2022/08/24 03:57:04;;;;;;;38.97;31.75;;;17.60;99.90;;;;;;6276465;22;20086;-91
2022/08/24 03:59:30;;;;;;;33.22;28.60;;;17.60;99.90;;;;;;6303113;22;20026;-92
2022/08/24 04:01:56;;;;;;;38.65;30.50;;;17.60;99.90;;;;;;6276106;22;20509;-91
2022/08/24 04:04:23;;;;;;;33.72;29.23;;;17.60;99.90;;;;;;6275841;22;20019;-90
2022/08/24 04:06:48;;;;;;;34.97;29.13;;;17.60;99.90;;;;;;6275892;22;20382;-91
2022/08/24 04:09:15;;;;;;;31.48;27.73;;;17.60;99.90;;;;;;6275689;22;20015;-91
2022/08/24 04:11:42;;;;;;;31.42;26.50;;;17.60;99.90;;;;;;6275828;22;20019;-91
2022/08/24 04:14:08;;;;;;;32.60;28.63;;;17.60;99.90;;;;;;6302979;22;20047;-91
2022/08/24 04:16:34;;;;;;;35.65;28.90;;;17.70;99.90;;;;;;6303167;22;20435;-92
2022/08/24 04:19:00;;;;;;;36.25;29.40;;;17.50;99.90;;;;;;6276355;22;20193;-91
2022/08/24 04:21:28;;;;;;;33.08;28.15;;;17.50;99.90;;;;;;6305571;22;20387;-91
2022/08/24 04:23:55;;;;;;;31.45;27.48;;;17.50;99.90;;;;;;6277466;22;20050;-91
2022/08/24 04:26:23;;;;;;;32.67;27.58;;;17.80;99.90;;;;;;6277803;22;20015;-91
2022/08/24 04:28:49;;;;;;;37.03;27.77;;;17.70;99.90;;;;;;6304429;22;20015;-91
2022/08/24 04:31:16;;;;;;;33.05;28.27;;;17.80;99.90;;;;;;6278294;22;20065;-92
2022/08/24 04:33:42;;;;;;;31.83;27.58;;;17.50;99.90;;;;;;6250615;22;20019;-91
2022/08/24 04:36:09;;;;;;;32.90;27.25;;;17.60;99.90;;;;;;6276686;22;20025;-91
2022/08/24 04:38:35;;;;;;;32.90;27.25;;;17.40;99.90;;;;;;6303685;22;20057;-91
2022/08/24 04:41:05;;;;;;;30.73;26.48;;;17.40;99.90;;;;;;6276551;22;20369;-91
2022/08/24 04:43:31;;;;;;;33.45;25.90;;;17.40;99.90;;;;;;6276075;22;20451;-91
2022/08/24 04:45:56;;;;;;;31.45;27.27;;;17.50;99.90;;;;;;6275993;22;20026;-91
2022/08/24 04:48:22;;;;;;;30.33;25.27;;;17.40;99.90;;;;;;6303251;22;20015;-92
2022/08/24 04:50:48;;;;;;;30.50;24.27;;;17.40;99.90;;;;;;6274570;22;20080;-92
2022/08/24 04:53:14;;;;;;;26.27;22.83;;;17.40;99.90;;;;;;6304022;22;20019;-92
2022/08/24 04:55:43;;;;;;;25.88;22.35;;;17.40;99.90;;;;;;6276415;22;20027;-92
2022/08/24 04:58:10;;;;;;;25.15;21.95;;;17.40;99.90;;;;;;6277007;22;20019;-91
2022/08/24 05:00:37;;;;;;;35.70;29.02;;;17.50;99.90;;;;;;6304139;22;20053;-92
2022/08/24 05:03:02;;;;;;;38.50;31.10;;;17.50;99.90;;;;;;6303664;22;20018;-92
2022/08/24 05:05:28;;;;;;;36.45;31.55;;;17.50;99.90;;;;;;6303187;22;20003;-91
2022/08/24 05:07:54;;;;;;;36.25;31.70;;;17.50;99.90;;;;;;6303118;22;20015;-92
2022/08/24 05:10:20;;;;;;;37.10;31.10;;;17.50;99.90;;;;;;6303110;22;20016;-92
2022/08/24 05:12:46;;;;;;;36.92;32.42;;;17.50;99.90;;;;;;6302169;22;20077;-91
2022/08/24 05:15:11;;;;;;;32.63;28.55;;;17.50;99.90;;;;;;6275872;22;20054;-91
2022/08/24 05:17:39;;;;;;;39.22;29.55;;;17.70;99.90;;;;;;6275336;22;20015;-92
2022/08/24 05:20:08;;;;;;;39.83;28.08;;;17.50;99.90;;;;;;6302891;22;20455;-91
2022/08/24 05:22:34;;;;;;;38.15;29.08;;;17.50;99.90;;;;;;6302329;22;20317;-91
2022/08/24 05:25:00;;;;;;;35.67;28.27;;;17.50;99.90;;;;;;6275316;22;20011;-91
2022/08/24 05:27:25;;;;;;;37.17;30.38;;;17.50;99.90;;;;;;6302729;22;20011;-91
2022/08/24 05:29:54;;;;;;;35.42;28.05;;;17.50;99.90;;;;;;6302119;22;20015;-91
2022/08/24 05:32:20;;;;;;;33.13;27.83;;;17.50;99.90;;;;;;6302739;22;20019;-91
2022/08/24 05:34:46;;;;;;;33.63;27.55;;;17.50;99.90;;;;;;6274629;22;20019;-91
2022/08/24 05:37:12;;;;;;;31.35;27.92;;;17.60;99.90;;;;;;6302532;22;20022;-91
2022/08/24 05:39:37;;;;;;;29.30;26.20;;;17.60;99.90;;;;;;6274553;22;20312;-91
2022/08/24 05:42:03;;;;;;;29.77;26.23;;;17.60;99.90;;;;;;6302384;22;20033;-91
2022/08/24 05:44:29;;;;;;;33.78;27.20;;;17.60;99.90;;;;;;6274814;22;20451;-91
2022/08/24 05:46:56;;;;;;;32.10;28.50;;;17.60;99.90;;;;;;6249381;22;20026;-92
2022/08/24 05:49:23;;;;;;;34.20;27.48;;;17.70;99.90;;;;;;6249209;22;20073;-91
2022/08/24 05:51:48;;;;;;;29.80;26.58;;;17.70;99.90;;;;;;6275144;22;20030;-91
2022/08/24 05:54:14;;;;;;;29.42;25.65;;;17.70;99.90;;;;;;6275384;22;20015;-91
2022/08/24 05:56:40;;;;;;;28.42;22.27;;;17.60;99.90;;;;;;6301843;22;20018;-91
2022/08/24 05:59:05;;;;;;;27.08;22.17;;;17.70;99.90;;;;;;6249245;22;20018;-92
2022/08/24 06:01:32;;;;;;;28.33;23.52;;;17.80;99.90;;;;;;6302469;22;20030;-92
2022/08/24 06:03:58;;;;;;;34.30;26.63;;;17.80;99.90;;;;;;6302615;22;20011;-91
2022/08/24 06:06:25;;;;;;;31.60;24.20;;;17.90;99.90;;;;;;6249773;22;20020;-92
2022/08/24 06:08:55;;;;;;;30.90;25.00;;;17.90;99.90;;;;;;6275064;22;20074;-91
2022/08/24 06:11:23;;;;;;;36.08;24.77;;;17.90;99.90;;;;;;6302047;22;20015;-91
2022/08/24 06:13:53;;;;;;;33.95;27.45;;;18.00;99.90;;;;;;6274621;22;20018;-91
2022/08/24 06:16:22;;;;;;;30.10;25.92;;;18.00;99.90;;;;;;6274891;22;20022;-92
2022/08/24 06:18:49;;;;;;;36.10;30.02;;;18.10;99.90;;;;;;6274278;22;20015;-92
2022/08/24 06:21:18;;;;;;;42.30;31.52;;;18.10;99.90;;;;;;6274513;22;20021;-92
2022/08/24 06:23:44;;;;;;;38.33;29.27;;;18.10;99.90;;;;;;6274376;22;20075;-91
2022/08/24 06:28:56;;;;;;;43.60;33.22;;;18.20;99.90;;;;;;6274040;22;20052;-92
2022/08/24 06:31:23;;;;;;;45.70;37.10;;;18.30;99.90;;;;;;6249898;22;20355;-91
2022/08/24 06:33:49;;;;;;;51.75;40.42;;;18.40;99.90;;;;;;6274334;22;20015;-91
2022/08/24 06:36:15;;;;;;;52.03;41.25;;;18.50;99.90;;;;;;6302244;22;20019;-92
2022/08/24 06:38:40;;;;;;;48.50;40.15;;;18.50;99.90;;;;;;6301454;22;20008;-92
2022/08/24 06:41:08;;;;;;;49.42;40.60;;;18.60;99.90;;;;;;6274096;22;20340;-92
2022/08/24 06:43:34;;;;;;;50.08;42.05;;;18.70;99.90;;;;;;6274940;22;20019;-92
2022/08/24 06:46:01;;;;;;;51.53;42.83;;;18.70;99.90;;;;;;6274336;22;20015;-91
2022/08/24 06:48:26;;;;;;;57.30;46.33;;;18.80;99.90;;;;;;6275101;22;20568;-91
2022/08/24 06:50:53;;;;;;;65.00;51.13;;;18.80;99.90;;;;;;6273828;22;20122;-91
2022/08/24 06:53:19;;;;;;;60.28;49.35;;;18.90;99.90;;;;;;6273736;22;20049;-91
2022/08/24 06:55:53;;;;;;;60.33;49.15;;;19.00;99.90;;;;;;6274003;22;20019;-92
2022/08/24 06:58:19;;;;;;;59.30;48.33;;;19.00;99.90;;;;;;6274312;22;20020;-92
2022/08/24 07:00:46;;;;;;;61.10;48.78;;;19.10;99.90;;;;;;6248464;22;20068;-91
2022/08/24 07:03:12;;;;;;;54.10;46.30;;;19.20;99.90;;;;;;6249332;22;20389;-91
2022/08/24 07:05:38;;;;;;;48.22;39.28;;;19.40;99.90;;;;;;6301777;22;20073;-91
2022/08/24 07:08:05;;;;;;;49.00;39.92;;;19.30;99.90;;;;;;6274554;22;20007;-91
2022/08/24 07:10:32;;;;;;;41.88;37.10;;;19.30;99.90;;;;;;6301856;22;20050;-91
2022/08/24 07:12:57;;;;;;;38.65;34.47;;;19.40;99.90;;;;;;6302250;22;20069;-91
2022/08/24 07:15:23;;;;;;;36.05;29.80;;;19.50;99.90;;;;;;6304285;22;20011;-92
2022/08/24 07:17:50;;;;;;;30.80;27.52;;;19.50;99.90;;;;;;6303607;22;20026;-92
2022/08/24 07:20:16;;;;;;;32.15;25.42;;;19.60;99.90;;;;;;6276458;22;20019;-92
2022/08/24 07:22:43;;;;;;;29.58;26.52;;;19.60;99.90;;;;;;6302603;22;20050;-91
2022/08/24 07:25:10;;;;;;;25.25;20.38;;;19.80;99.90;;;;;;6304299;22;20061;-92
2022/08/24 07:27:36;;;;;;;19.70;16.30;;;19.70;99.90;;;;;;6303311;22;20520;-91
2022/08/24 07:30:02;;;;;;;16.13;13.07;;;19.80;99.90;;;;;;6220925;22;20024;-91
2022/08/24 07:32:28;;;;;;;13.90;12.35;;;19.80;99.90;;;;;;6176841;23;20139;-91
2022/08/24 07:34:53;;;;;;;15.90;9.48;;;20.10;99.90;;;;;;6176745;23;20045;-91
2022/08/24 07:37:19;;;;;;;12.32;8.63;;;20.10;99.90;;;;;;6149791;22;20579;-91
2022/08/24 07:39:45;;;;;;;10.15;8.65;;;20.20;99.90;;;;;;6174847;22;20384;-92
2022/08/24 07:42:11;;;;;;;11.05;8.52;;;20.30;99.90;;;;;;6150272;22;20104;-92
2022/08/24 07:44:37;;;;;;;14.43;7.85;;;20.30;99.90;;;;;;6149902;23;20039;-92
2022/08/24 07:47:03;;;;;;;11.30;8.15;;;20.40;99.90;;;;;;6175090;23;20100;-91
2022/08/24 07:49:29;;;;;;;8.55;7.50;;;20.50;99.90;;;;;;6175130;23;20021;-91
2022/08/24 07:51:56;;;;;;;9.25;7.10;;;20.60;99.90;;;;;;6175324;23;20575;-91
2022/08/24 07:54:21;;;;;;;10.02;8.05;;;20.60;99.90;;;;;;6177329;23;20017;-92
2022/08/24 07:56:49;;;;;;;10.77;7.50;;;20.70;99.90;;;;;;6174547;23;20348;-91
2022/08/24 07:59:15;;;;;;;11.75;8.07;;;20.70;99.90;;;;;;6176993;23;20023;-92
2022/08/24 08:01:41;;;;;;;10.15;7.70;;;20.80;99.90;;;;;;6176852;23;20080;-92
2022/08/24 08:04:06;;;;;;;8.10;6.15;;;20.90;99.90;;;;;;6150530;23;20755;-93
2022/08/24 08:06:32;;;;;;;11.70;7.07;;;21.00;99.90;;;;;;6174617;22;20345;-92
2022/08/24 08:08:58;;;;;;;8.52;7.13;;;20.90;99.90;;;;;;6175216;22;20023;-92
2022/08/24 08:11:23;;;;;;;7.97;6.10;;;21.20;99.90;;;;;;6175754;22;20043;-92
2022/08/24 08:13:49;;;;;;;8.50;6.03;;;21.20;99.90;;;;;;6175207;22;20393;-91
2022/08/24 08:16:15;;;;;;;9.00;6.70;;;21.30;99.90;;;;;;6175139;22;20021;-91
2022/08/24 08:18:42;;;;;;;11.23;6.40;;;21.40;99.90;;;;;;6174777;23;20122;-92
2022/08/24 08:24:13;;;;;;;9.02;6.60;;;21.50;99.90;;;;;;6176059;23;20028;-92
2022/08/24 08:26:37;;;;;;;10.32;6.45;;;21.70;99.90;;;;;;6175901;23;20021;-92
2022/08/24 08:29:03;;;;;;;12.93;6.13;;;22.00;99.90;;;;;;6189435;22;20449;-92
2022/08/24 08:31:32;;;;;;;11.32;5.50;;;22.00;99.90;;;;;;6276103;22;20088;-91
2022/08/24 08:33:57;;;;;;;7.28;4.88;;;22.20;99.90;;;;;;6275803;22;20069;-91
2022/08/24 08:36:23;;;;;;;11.93;6.15;;;22.40;99.90;;;;;;6250036;22;20011;-91
2022/08/24 08:38:49;;;;;;;9.73;5.78;;;22.50;99.90;;;;;;6275400;22;20015;-91
2022/08/24 08:41:17;;;;;;;10.65;5.38;;;22.70;99.90;;;;;;6303618;22;20011;-92
2022/08/24 08:43:53;;;;;;;10.75;6.10;;;22.80;99.90;;;;;;6275285;22;20455;-93
2022/08/24 08:47:05;;;;;;;9.40;6.03;;;23.00;99.90;;;;;;6303285;22;20366;-92
2022/08/24 08:49:59;;;;;;;9.60;4.40;;;23.40;99.90;;;;;;6147951;23;20072;-92
2022/08/24 08:52:33;;;;;;;9.23;4.70;;;23.60;99.90;;;;;;6148739;23;20021;-92
2022/08/24 08:55:04;;;;;;;8.35;4.68;;;23.70;99.90;;;;;;6148679;23;20018;-92
2022/08/24 08:57:47;;;;;;;7.57;4.25;;;23.90;99.90;;;;;;6123729;23;20076;-92
2022/08/24 09:00:21;;;;;;;6.30;4.22;;;24.10;99.90;;;;;;6124401;23;20104;-92
2022/08/24 09:03:12;;;;;;;7.55;3.92;;;24.20;99.90;;;;;;6147782;23;20153;-91
2022/08/24 09:05:53;;;;;;;10.60;4.30;;;24.40;99.90;;;;;;6148103;23;20017;-92
2022/08/24 09:08:56;;;;;;;4.55;3.28;;;24.50;99.90;;;;;;6098986;23;20022;-92
2022/08/24 09:11:32;;;;;;;6.47;3.53;;;24.60;99.90;;;;;;6123751;23;20083;-92
2022/08/24 09:14:26;;;;;;;8.25;4.40;;;24.80;99.90;;;;;;6098861;23;20018;-92
2022/08/24 09:17:12;;;;;;;5.35;3.38;;;24.90;99.90;;;;;;6120665;23;20021;-92
2022/08/24 09:20:13;;;;;;;6.75;3.05;;;25.00;99.90;;;;;;6122734;23;20049;-92
2022/08/24 09:22:42;;;;;;;6.13;3.25;;;25.20;99.90;;;;;;6132055;22;20016;-91
2022/08/24 09:25:44;;;;;;;8.50;2.85;;;25.40;99.90;;;;;;6275618;22;20019;-91
2022/08/24 09:28:32;;;;;;;7.10;3.38;;;25.50;99.90;;;;;;6229312;22;20466;-92
2022/08/24 09:31:16;;;;;;;6.72;3.10;;;25.60;99.90;;;;;;6158441;23;20091;-92
2022/08/24 09:34:12;;;;;;;6.57;3.10;;;25.80;99.90;;;;;;6173842;22;20337;-91
2022/08/24 09:37:01;;;;;;;8.70;3.30;;;25.90;99.90;;;;;;6173923;23;20145;-92
2022/08/24 09:39:36;;;;;;;6.90;2.90;;;26.00;99.90;;;;;;6175415;22;20048;-92
2022/08/24 09:42:38;;;;;;;8.05;3.15;;;26.10;99.90;;;;;;6176845;23;20100;-92
2022/08/24 09:45:13;;;;;;;7.80;3.30;;;26.20;99.90;;;;;;6151632;23;20017;-92
2022/08/24 09:48:03;;;;;;;5.30;3.00;;;26.40;99.90;;;;;;6176327;23;20388;-92
2022/08/24 09:51:09;;;;;;;5.78;3.05;;;26.50;99.90;;;;;;6174796;22;20024;-90
2022/08/24 09:54:08;;;;;;;4.55;2.60;;;26.70;99.90;;;;;;6173954;23;20465;-92
2022/08/24 09:57:04;;;;;;;5.40;2.72;;;26.80;99.90;;;;;;6176681;23;20048;-92
2022/08/24 09:59:48;;;;;;;6.63;2.97;;;26.90;99.90;;;;;;6177002;22;20100;-92
2022/08/24 10:02:48;;;;;;;9.90;3.15;;;27.10;99.90;;;;;;6174584;22;20157;-92
2022/08/24 10:05:46;;;;;;;8.15;3.15;;;27.20;99.90;;;;;;6182516;23;20449;-92
2022/08/24 10:08:38;;;;;;;6.00;2.60;;;27.30;99.90;;;;;;6207852;23;20516;-93
2022/08/24 10:11:20;;;;;;;5.20;2.80;;;27.40;99.90;;;;;;6182710;23;20052;-93
2022/08/24 10:13:58;;;;;;;6.85;2.85;;;27.60;99.90;;;;;;6207024;23;20416;-92
2022/08/24 10:16:42;;;;;;;6.38;2.88;;;27.60;99.90;;;;;;6207219;23;20461;-93
2022/08/24 10:19:13;;;;;;;8.00;3.20;;;27.70;99.90;;;;;;6182092;23;20095;-93
2022/08/24 10:22:04;;;;;;;9.57;3.33;;;27.80;99.90;;;;;;6182602;23;20020;-92
2022/08/24 10:25:04;;;;;;;7.35;2.80;;;27.90;99.90;;;;;;6182345;23;20064;-92
2022/08/24 10:28:02;;;;;;;5.85;2.95;;;28.00;99.90;;;;;;6118422;23;20018;-92
2022/08/24 10:30:44;;;;;;;8.82;3.20;;;28.10;98.10;;;;;;6092992;23;20064;-92
2022/08/24 10:33:27;;;;;;;5.95;2.95;;;28.20;99.30;;;;;;6093540;23;20096;-93
2022/08/24 10:36:19;;;;;;;3.90;2.50;;;28.30;98.50;;;;;;6092922;23;20022;-92
2022/08/24 10:45:43;;;;;;;7.10;2.40;;;28.60;97.50;;;;;;6146233;23;20021;-93
2022/08/24 10:48:30;;;;;;;7.90;2.90;;;28.80;97.90;;;;;;6122363;23;20369;-93
2022/08/24 10:50:58;;;;;;;5.00;2.22;;;28.90;97.20;;;;;;6122046;23;20104;-94
2022/08/24 10:53:31;;;;;;;6.03;2.15;;;28.90;97.90;;;;;;6122888;23;20432;-92
2022/08/24 10:56:08;;;;;;;4.47;2.10;;;29.10;97.80;;;;;;6122378;23;20382;-92
2022/08/24 10:58:34;;;;;;;4.60;1.85;;;29.30;97.50;;;;;;6122458;23;20026;-93
2022/08/24 11:01:19;;;;;;;4.22;1.65;;;29.30;97.10;;;;;;6146263;23;20009;-93
2022/08/24 11:03:54;;;;;;;5.43;1.92;;;29.40;96.30;;;;;;6162924;23;20082;-92
2022/08/24 11:06:23;;;;;;;4.55;2.25;;;29.50;96.30;;;;;;6212502;23;20108;-92
2022/08/24 11:09:06;;;;;;;4.78;1.90;;;29.60;96.60;;;;;;6236742;23;20024;-93
2022/08/24 11:11:36;;;;;;;4.28;1.98;;;29.70;95.80;;;;;;6238027;23;20114;-93
2022/08/24 11:14:20;;;;;;;5.60;1.75;;;29.80;96.00;;;;;;6237438;23;20067;-92
2022/08/24 11:16:47;;;;;;;3.00;1.50;;;29.80;95.60;;;;;;6211842;23;20035;-92
2022/08/24 11:19:34;;;;;;;5.47;1.70;;;29.80;95.60;;;;;;6237615;23;20020;-93
2022/08/24 11:22:20;;;;;;;2.28;1.17;;;29.60;95.50;;;;;;6182841;23;20024;-92
2022/08/24 11:24:52;;;;;;;4.00;1.20;;;29.50;95.10;;;;;;6174001;23;20084;-93
2022/08/24 11:27:21;;;;;;;3.90;1.08;;;29.40;95.60;;;;;;6174208;23;20017;-93
2022/08/24 11:29:50;;;;;;;5.05;1.13;;;29.50;95.60;;;;;;6173100;23;20027;-93
2022/08/24 11:32:43;;;;;;;2.85;1.13;;;29.60;95.50;;;;;;6149760;23;20043;-93
2022/08/24 11:35:25;;;;;;;2.47;0.95;;;29.80;94.10;;;;;;6149649;22;20322;-93
2022/08/24 11:37:54;;;;;;;3.63;0.90;;;30.10;93.50;;;;;;6149226;23;20020;-93
2022/08/24 11:40:25;;;;;;;3.25;0.85;;;30.30;93.90;;;;;;6175917;23;20378;-93
2022/08/24 11:42:57;;;;;;;1.60;0.70;;;30.50;94.10;;;;;;6175147;23;20295;-93
2022/08/24 11:45:46;;;;;;;2.25;1.00;;;30.60;93.50;;;;;;6175928;23;20017;-93
2022/08/24 11:48:26;;;;;;;1.73;0.90;;;30.70;93.10;;;;;;6176064;23;20018;-92
2022/08/24 11:51:00;;;;;;;2.47;0.90;;;30.70;92.30;;;;;;6175400;22;20337;-91
2022/08/24 11:53:58;;;;;;;3.22;0.70;;;30.60;92.70;;;;;;6149316;23;20453;-91
2022/08/24 11:56:51;;;;;;;5.65;1.02;;;30.30;92.90;;;;;;6173383;23;20056;-91
2022/08/24 11:59:35;;;;;;;2.70;0.95;;;30.40;92.10;;;;;;6174984;23;20024;-91
2022/08/24 12:02:07;;;;;;;;;;;30.60;92.50;;;;;;6175836;23;20025;-91
2022/08/24 12:04:32;;;;;;;1.77;0.90;;;30.70;92.30;;;;;;6175671;23;19920;-92
2022/08/24 12:07:17;;;;;;;2.20;1.20;;;30.80;92.60;;;;;;6175394;22;20090;-91
2022/08/24 12:10:08;;;;;;;3.13;1.08;;;30.90;92.00;;;;;;6176697;23;20043;-91
2022/08/24 12:13:08;;;;;;;3.63;1.27;;;31.10;92.40;;;;;;6174499;23;20023;-92
2022/08/24 12:15:46;;;;;;;2.88;0.90;;;31.40;92.70;;;;;;6174625;23;20027;-92
2022/08/24 12:18:52;;;;;;;1.25;0.70;;;31.50;91.30;;;;;;6177314;23;20088;-92
2022/08/24 12:21:22;;;;;;;4.38;1.10;;;31.60;90.40;;;;;;6150000;23;20092;-91
2022/08/24 12:23:53;;;;;;;3.03;0.95;;;31.70;91.30;;;;;;6175224;23;20419;-92
2022/08/24 12:26:45;;;;;;;2.67;0.70;;;31.80;91.20;;;;;;6176699;23;20009;-91
2022/08/24 12:29:25;;;;;;;2.05;0.60;;;32.00;91.10;;;;;;6175115;23;20028;-92
2022/08/24 12:32:05;;;;;;;2.50;0.80;;;32.20;91.00;;;;;;6176584;23;20028;-93
2022/08/24 12:34:59;;;;;;;2.35;0.80;;;32.40;90.50;;;;;;6177363;23;20091;-91
2022/08/24 12:37:36;;;;;;;2.15;0.70;;;32.40;88.10;;;;;;6175518;23;20048;-93
2022/08/24 12:40:11;;;;;;;1.17;0.80;;;32.30;89.40;;;;;;6177240;23;20013;-94
2022/08/24 12:42:49;;;;;;;2.47;0.95;;;32.30;89.50;;;;;;6174543;22;20025;-93
2022/08/24 12:45:21;;;;;;;3.38;1.00;;;32.20;90.20;;;;;;6175169;23;20013;-91
2022/08/24 12:48:04;;;;;;;4.32;0.90;;;32.10;89.00;;;;;;6176633;23;20017;-92
2022/08/24 12:50:48;;;;;;;2.97;1.10;;;32.10;89.00;;;;;;6149973;23;20068;-92
2022/08/24 12:53:32;;;;;;;2.05;1.08;;;32.00;90.40;;;;;;6177347;23;20070;-92
2022/08/24 12:56:27;;;;;;;4.32;1.30;;;31.90;90.90;;;;;;6174985;23;20353;-92
2022/08/24 12:59:02;;;;;;;1.60;0.90;;;31.80;91.50;;;;;;6176906;23;20017;-93
2022/08/24 13:01:34;;;;;;;3.15;0.90;;;31.70;90.30;;;;;;6176738;23;20092;-92
2022/08/24 13:04:14;;;;;;;3.53;1.10;;;31.60;90.40;;;;;;6177379;23;20076;-92
2022/08/24 13:06:50;;;;;;;4.05;1.00;;;31.50;91.10;;;;;;6174912;23;20401;-93
2022/08/24 13:09:35;;;;;;;1.92;0.90;;;31.40;90.70;;;;;;6175603;23;20057;-93
2022/08/24 13:12:29;;;;;;;4.68;1.00;;;31.30;91.40;;;;;;6176730;23;20087;-92
2022/08/24 13:15:18;;;;;;;4.13;1.00;;;31.50;92.20;;;;;;6176112;23;20017;-92